Jangho Young — DSFY2 — position and weather

sailwx.info

Track history (hours):
 
Tides and Currents Weather Stations Pressure Air Temp Water Temp Dewpoint Dewpoint Depression Visibility Wind Speed Wind Dir Waves Ship Positions

Jangho Young

Last reported at 2017-Oct-25 05:34 UTC. Time now 2017-Nov-19 05:08 UTC.
Position N 34°37' E 135°01'.
Warning: this ship's position is 24 days out of date.

Length 60 m; draft 4.2 m.

Type: Cargo ship. MMSI: 441245000.

Date/timePositionNaut miles runAvg speedWind from/ knotsBaromVisibWave heightAir tempDewpointWater temp
2017-Oct-25 05:34N 34°37' E 135°01'1 8.1
2017-Oct-25 05:27N 34°37' E 135°02'3 7.5
2017-Oct-25 05:00N 34°34' E 135°05'4 7.1
2017-Oct-25 04:27N 34°31' E 135°04'15 6.8
2017-Oct-25 02:11N 34°15' E 135°02'2 8.4
2017-Oct-25 02:00N 34°15' E 135°04'3 5.7
2017-Oct-25 01:31N 34°14' E 135°08'0 0.0
2017-Oct-25 01:00N 34°14' E 135°08'0 0.0
2017-Oct-25 00:22N 34°14' E 135°08'0 0.0
2017-Oct-24 23:58N 34°14' E 135°08'0 0.0
2017-Oct-24 23:24N 34°14' E 135°08'0 0.0
2017-Oct-24 23:00N 34°14' E 135°08'0 0.0
2017-Oct-24 22:31N 34°14' E 135°08'0 0.0
2017-Oct-24 21:55N 34°14' E 135°08'0 0.0
2017-Oct-24 21:31N 34°14' E 135°08'0 0.0
2017-Oct-24 21:00N 34°14' E 135°08'0 0.0
2017-Oct-24 20:28N 34°14' E 135°08'0 0.0
2017-Oct-24 20:01N 34°14' E 135°08'0 0.0
2017-Oct-24 19:30N 34°14' E 135°08'0 0.1
2017-Oct-24 19:00N 34°14' E 135°08'0 0.0
2017-Oct-24 18:30N 34°14' E 135°08'0 0.0
2017-Oct-24 18:00N 34°14' E 135°08'0 0.0
2017-Oct-24 17:31N 34°14' E 135°08'0 0.0
2017-Oct-24 17:00N 34°14' E 135°08'0 0.0
2017-Oct-24 16:30N 34°14' E 135°08'0 0.0
2017-Oct-24 16:00N 34°14' E 135°08'0 0.0
2017-Oct-24 15:31N 34°14' E 135°08'0 0.0
2017-Oct-24 15:01N 34°14' E 135°08'0 0.0
2017-Oct-24 14:31N 34°14' E 135°08'0 0.0
2017-Oct-24 14:00N 34°14' E 135°08'0 0.0
2017-Oct-24 13:31N 34°14' E 135°08'0 0.1
2017-Oct-24 13:01N 34°14' E 135°08'0 0.1
2017-Oct-24 12:31N 34°14' E 135°08'0 0.0
2017-Oct-24 12:01N 34°14' E 135°08'0 0.0
2017-Oct-24 11:30N 34°14' E 135°08'0 0.0
2017-Oct-24 11:00N 34°14' E 135°08'0 0.0
2017-Oct-24 10:28N 34°14' E 135°08'0 0.0
2017-Oct-24 09:57N 34°14' E 135°08'0 0.0
2017-Oct-24 09:31N 34°14' E 135°08'0 0.0
2017-Oct-24 09:00N 34°14' E 135°08'0 0.0
2017-Oct-24 08:27N 34°14' E 135°08'0 0.0
2017-Oct-24 08:00N 34°14' E 135°08'0 0.0
2017-Oct-24 07:13N 34°14' E 135°08'0 0.0
2017-Oct-24 06:09N 34°14' E 135°08'0 0.0
2017-Oct-24 05:40N 34°14' E 135°08'0 0.0
2017-Oct-24 05:27N 34°14' E 135°08'0 0.0
2017-Oct-24 04:54N 34°14' E 135°08'0 0.0
2017-Oct-24 04:19N 34°14' E 135°08'0 0.0
2017-Oct-24 04:00N 34°14' E 135°08'0 0.0
2017-Oct-24 03:31N 34°14' E 135°08'0 0.0
2017-Oct-24 02:58N 34°14' E 135°08'0 0.0
2017-Oct-24 02:28N 34°14' E 135°08'0 0.0
2017-Oct-24 01:58N 34°14' E 135°08'0 0.0
2017-Oct-24 01:31N 34°14' E 135°08'0 0.0
2017-Oct-24 01:00N 34°14' E 135°08'0 0.0
2017-Oct-24 00:31N 34°14' E 135°08'0 0.0
2017-Oct-23 23:57N 34°14' E 135°08'0 0.0
2017-Oct-23 23:31N 34°14' E 135°08'0 0.0
2017-Oct-23 23:00N 34°14' E 135°08'0 0.0
2017-Oct-23 22:30N 34°14' E 135°08'0 0.0
2017-Oct-23 21:57N 34°14' E 135°08'0 0.0
2017-Oct-23 21:31N 34°14' E 135°08'0 0.0
2017-Oct-23 21:01N 34°14' E 135°08'0 0.0
2017-Oct-23 20:31N 34°14' E 135°08'0 0.0
2017-Oct-23 20:00N 34°14' E 135°08'0 0.0
2017-Oct-23 19:28N 34°14' E 135°08'0 0.0
2017-Oct-23 19:01N 34°14' E 135°08'0 0.0
2017-Oct-23 18:31N 34°14' E 135°08'0 0.0
2017-Oct-23 18:01N 34°14' E 135°08'0 0.0
2017-Oct-23 17:31N 34°14' E 135°08'0 0.0
2017-Oct-23 17:01N 34°14' E 135°08'0 0.0
2017-Oct-23 16:31N 34°14' E 135°08'0 0.0
2017-Oct-23 15:58N 34°14' E 135°08'0 0.0
2017-Oct-23 15:25N 34°14' E 135°08'0 0.0
2017-Oct-23 15:00N 34°14' E 135°08'0 0.0
2017-Oct-23 14:31N 34°14' E 135°08'0 0.0
2017-Oct-23 14:01N 34°14' E 135°08'0 0.0
2017-Oct-23 13:28N 34°14' E 135°08'0 0.0
2017-Oct-23 12:57N 34°14' E 135°08'0 0.0
2017-Oct-23 12:28N 34°14' E 135°08'0 0.0
2017-Oct-23 11:57N 34°14' E 135°08'0 0.0
2017-Oct-23 11:31N 34°14' E 135°08'0 0.0
2017-Oct-23 11:00N 34°14' E 135°08'0 0.0
2017-Oct-23 10:30N 34°14' E 135°08'0 0.0
2017-Oct-23 10:00N 34°14' E 135°08'0 0.0
2017-Oct-23 09:31N 34°14' E 135°08'0 0.0
2017-Oct-23 09:01N 34°14' E 135°08'0 0.0
2017-Oct-23 08:28N 34°14' E 135°08'0 0.0
2017-Oct-23 08:01N 34°14' E 135°08'0 0.0
2017-Oct-23 07:28N 34°14' E 135°08'0 0.0
2017-Oct-23 07:01N 34°14' E 135°08'0 0.0
2017-Oct-23 06:30N 34°14' E 135°08'0 0.0
2017-Oct-23 05:58N 34°14' E 135°08'0 0.0
2017-Oct-23 05:25N 34°14' E 135°08'0 0.5
2017-Oct-23 05:00N 34°14' E 135°07'2 3.9
2017-Oct-23 04:30N 34°15' E 135°05'3 6.3
2017-Oct-23 04:00N 34°15' E 135°01'9 1.0
2017-Oct-22 18:55N 34°23' E 135°08'0 0.2
2017-Oct-22 17:21N 34°23' E 135°08'0 0.4
2017-Oct-22 16:43N 34°23' E 135°08'0 0.3
2017-Oct-22 16:20N 34°23' E 135°08'0 0.5
2017-Oct-22 15:58N 34°23' E 135°08'0 0.2
2017-Oct-22 15:08N 34°23' E 135°08'0 0.2
2017-Oct-22 14:59N 34°23' E 135°08'0 0.0
2017-Oct-22 05:21N 34°23' E 135°08'0 0.0
2017-Oct-22 04:52N 34°23' E 135°08'0 0.0
2017-Oct-22 02:09N 34°23' E 135°08'0 0.0
2017-Oct-22 00:21N 34°23' E 135°08'0 0.0
2017-Oct-21 23:57N 34°23' E 135°08'0 0.0
2017-Oct-21 23:28N 34°23' E 135°08'0 0.0
2017-Oct-21 22:51N 34°23' E 135°08'0 0.0
2017-Oct-21 22:27N 34°23' E 135°08'0 0.0
2017-Oct-21 21:57N 34°23' E 135°08'0 0.0
2017-Oct-21 21:22N 34°23' E 135°08'0 0.0
2017-Oct-21 20:57N 34°23' E 135°08'0 0.0
2017-Oct-21 19:45N 34°23' E 135°08'0 0.0
2017-Oct-21 19:15N 34°23' E 135°08'0 0.0
2017-Oct-21 17:52N 34°23' E 135°08'0 0.0
2017-Oct-21 17:21N 34°23' E 135°08'0 0.0
2017-Oct-21 16:57N 34°23' E 135°08'0 0.0
2017-Oct-21 16:21N 34°23' E 135°08'0 0.0
2017-Oct-21 15:58N 34°23' E 135°08'0 0.0
2017-Oct-21 15:09N 34°23' E 135°08'0 0.0
2017-Oct-21 14:46N 34°23' E 135°08'0 0.0
2017-Oct-21 14:28N 34°23' E 135°08'0 0.0
2017-Oct-21 07:22N 34°23' E 135°08'1 0.2
2017-Oct-21 03:13N 34°23' E 135°09'1 3.0
2017-Oct-21 02:54N 34°23' E 135°10'11 6.3
2017-Oct-21 01:10N 34°16' E 134°59'1 8.6
2017-Oct-21 01:00N 34°16' E 135°01'4 8.7
2017-Oct-21 00:30N 34°14' E 135°06'1 2.4
2017-Oct-21 00:00N 34°14' E 135°08'0 0.0
2017-Oct-20 23:28N 34°14' E 135°08'0 0.0
2017-Oct-20 23:00N 34°14' E 135°08'0 0.0
2017-Oct-20 22:27N 34°14' E 135°08'0 0.0
2017-Oct-20 21:57N 34°14' E 135°08'0 0.0
2017-Oct-20 21:28N 34°14' E 135°08'0 0.0
2017-Oct-20 20:51N 34°14' E 135°08'0 0.0
2017-Oct-20 20:28N 34°14' E 135°08'0 0.0
2017-Oct-20 19:58N 34°14' E 135°08'0 0.0
2017-Oct-20 19:27N 34°14' E 135°08'0 0.0
2017-Oct-20 18:58N 34°14' E 135°08'0 0.0
2017-Oct-20 18:27N 34°14' E 135°08'0 0.0
2017-Oct-20 18:00N 34°14' E 135°08'0 0.0
2017-Oct-20 17:31N 34°14' E 135°08'0 0.0
2017-Oct-20 17:00N 34°14' E 135°08'0 0.0
2017-Oct-20 16:30N 34°14' E 135°08'0 0.0
2017-Oct-20 16:01N 34°14' E 135°08'0 0.0
2017-Oct-20 15:28N 34°14' E 135°08'0 0.0
2017-Oct-20 15:00N 34°14' E 135°08'0 0.0
2017-Oct-20 13:58N 34°14' E 135°08'0 0.0
2017-Oct-20 13:30N 34°14' E 135°08'0 0.0
2017-Oct-20 12:57N 34°14' E 135°08'0 0.0
2017-Oct-20 12:31N 34°14' E 135°08'0 0.0
2017-Oct-20 12:01N 34°14' E 135°08'0 0.0
2017-Oct-20 11:28N 34°14' E 135°08'0 0.0
2017-Oct-20 11:00N 34°14' E 135°08'0 0.0
2017-Oct-20 10:30N 34°14' E 135°08'0 0.0
2017-Oct-20 09:55N 34°14' E 135°08'0 0.0
2017-Oct-20 09:30N 34°14' E 135°08'0 0.0
2017-Oct-20 09:01N 34°14' E 135°08'0 0.0
2017-Oct-20 08:31N 34°14' E 135°08'0 0.0
2017-Oct-20 08:01N 34°14' E 135°08'0 0.0
2017-Oct-20 07:30N 34°14' E 135°08'0 0.0
2017-Oct-20 07:00N 34°14' E 135°08'0 0.0
2017-Oct-20 06:28N 34°14' E 135°08'0 0.0
2017-Oct-20 05:58N 34°14' E 135°08'0 0.0
2017-Oct-20 05:31N 34°14' E 135°08'0 0.0
2017-Oct-20 04:57N 34°14' E 135°08'0 0.0
2017-Oct-20 04:27N 34°14' E 135°08'0 0.0
2017-Oct-20 04:00N 34°14' E 135°08'0 0.0
2017-Oct-20 03:31N 34°14' E 135°08'0 0.0
2017-Oct-20 02:58N 34°14' E 135°08'0 0.0
2017-Oct-20 02:27N 34°14' E 135°08'0 0.0
2017-Oct-20 02:01N 34°14' E 135°08'0 0.0
2017-Oct-20 01:30N 34°14' E 135°08'0 0.0
2017-Oct-20 01:01N 34°14' E 135°08'0 0.0
2017-Oct-20 00:31N 34°14' E 135°08'0 0.0
2017-Oct-19 23:57N 34°14' E 135°08'0 0.0
2017-Oct-19 23:29N 34°14' E 135°08'0 0.0
2017-Oct-19 23:00N 34°14' E 135°08'0 0.6
2017-Oct-19 22:30N 34°14' E 135°07'1 2.4
2017-Oct-19 22:00N 34°13' E 135°06'0 0.0
2017-Oct-19 21:30N 34°13' E 135°06'0 0.0
2017-Oct-19 21:01N 34°13' E 135°06'0 0.0
2017-Oct-19 20:30N 34°13' E 135°06'0 0.0
2017-Oct-19 20:00N 34°13' E 135°06'0 0.0
2017-Oct-19 19:31N 34°13' E 135°06'0 0.0
2017-Oct-19 19:00N 34°13' E 135°06'0 0.0
2017-Oct-19 18:31N 34°13' E 135°06'0 0.0
2017-Oct-19 18:01N 34°13' E 135°06'0 0.8
2017-Oct-19 17:30N 34°14' E 135°06'4 8.8
2017-Oct-19 17:00N 34°15' E 135°00'12 9.2
2017-Oct-19 15:42N 34°27' E 135°01'2 9.4
2017-Oct-19 15:29N 34°29' E 135°02'4 9.1
2017-Oct-19 15:00N 34°33' E 135°04'4 7.9
2017-Oct-19 14:30N 34°36' E 135°02'  
Track history (hours):
 
Tides and Currents Weather Stations Pressure Air Temp Water Temp Dewpoint Dewpoint Depression Visibility Wind Speed Wind Dir Waves Ship Positions

Jangho Young

Last reported at 2017-Oct-25 05:34 UTC. Time now 2017-Nov-19 05:08 UTC.
Position N 34°37' E 135°01'.
Warning: this ship's position is 24 days out of date.

Length 60 m; draft 4.2 m.

Type: Cargo ship. MMSI: 441245000.

Date/timePositionNaut miles runAvg speedWind from/ knotsBaromVisibWave heightAir tempDewpointWater temp
2017-Oct-25 05:34N 34°37' E 135°01'1 8.1
2017-Oct-25 05:27N 34°37' E 135°02'3 7.5
2017-Oct-25 05:00N 34°34' E 135°05'4 7.1
2017-Oct-25 04:27N 34°31' E 135°04'15 6.8
2017-Oct-25 02:11N 34°15' E 135°02'2 8.4
2017-Oct-25 02:00N 34°15' E 135°04'3 5.7
2017-Oct-25 01:31N 34°14' E 135°08'0 0.0
2017-Oct-25 01:00N 34°14' E 135°08'0 0.0
2017-Oct-25 00:22N 34°14' E 135°08'0 0.0
2017-Oct-24 23:58N 34°14' E 135°08'0 0.0
2017-Oct-24 23:24N 34°14' E 135°08'0 0.0
2017-Oct-24 23:00N 34°14' E 135°08'0 0.0
2017-Oct-24 22:31N 34°14' E 135°08'0 0.0
2017-Oct-24 21:55N 34°14' E 135°08'0 0.0
2017-Oct-24 21:31N 34°14' E 135°08'0 0.0
2017-Oct-24 21:00N 34°14' E 135°08'0 0.0
2017-Oct-24 20:28N 34°14' E 135°08'0 0.0
2017-Oct-24 20:01N 34°14' E 135°08'0 0.0
2017-Oct-24 19:30N 34°14' E 135°08'0 0.1
2017-Oct-24 19:00N 34°14' E 135°08'0 0.0
2017-Oct-24 18:30N 34°14' E 135°08'0 0.0
2017-Oct-24 18:00N 34°14' E 135°08'0 0.0
2017-Oct-24 17:31N 34°14' E 135°08'0 0.0
2017-Oct-24 17:00N 34°14' E 135°08'0 0.0
2017-Oct-24 16:30N 34°14' E 135°08'0 0.0
2017-Oct-24 16:00N 34°14' E 135°08'0 0.0
2017-Oct-24 15:31N 34°14' E 135°08'0 0.0
2017-Oct-24 15:01N 34°14' E 135°08'0 0.0
2017-Oct-24 14:31N 34°14' E 135°08'0 0.0
2017-Oct-24 14:00N 34°14' E 135°08'0 0.0
2017-Oct-24 13:31N 34°14' E 135°08'0 0.1
2017-Oct-24 13:01N 34°14' E 135°08'0 0.1
2017-Oct-24 12:31N 34°14' E 135°08'0 0.0
2017-Oct-24 12:01N 34°14' E 135°08'0 0.0
2017-Oct-24 11:30N 34°14' E 135°08'0 0.0
2017-Oct-24 11:00N 34°14' E 135°08'0 0.0
2017-Oct-24 10:28N 34°14' E 135°08'0 0.0
2017-Oct-24 09:57N 34°14' E 135°08'0 0.0
2017-Oct-24 09:31N 34°14' E 135°08'0 0.0
2017-Oct-24 09:00N 34°14' E 135°08'0 0.0
2017-Oct-24 08:27N 34°14' E 135°08'0 0.0
2017-Oct-24 08:00N 34°14' E 135°08'0 0.0
2017-Oct-24 07:13N 34°14' E 135°08'0 0.0
2017-Oct-24 06:09N 34°14' E 135°08'0 0.0
2017-Oct-24 05:40N 34°14' E 135°08'0 0.0
2017-Oct-24 05:27N 34°14' E 135°08'0 0.0
2017-Oct-24 04:54N 34°14' E 135°08'0 0.0
2017-Oct-24 04:19N 34°14' E 135°08'0 0.0
2017-Oct-24 04:00N 34°14' E 135°08'0 0.0
2017-Oct-24 03:31N 34°14' E 135°08'0 0.0
2017-Oct-24 02:58N 34°14' E 135°08'0 0.0
2017-Oct-24 02:28N 34°14' E 135°08'0 0.0
2017-Oct-24 01:58N 34°14' E 135°08'0 0.0
2017-Oct-24 01:31N 34°14' E 135°08'0 0.0
2017-Oct-24 01:00N 34°14' E 135°08'0 0.0
2017-Oct-24 00:31N 34°14' E 135°08'0 0.0
2017-Oct-23 23:57N 34°14' E 135°08'0 0.0
2017-Oct-23 23:31N 34°14' E 135°08'0 0.0
2017-Oct-23 23:00N 34°14' E 135°08'0 0.0
2017-Oct-23 22:30N 34°14' E 135°08'0 0.0
2017-Oct-23 21:57N 34°14' E 135°08'0 0.0
2017-Oct-23 21:31N 34°14' E 135°08'0 0.0
2017-Oct-23 21:01N 34°14' E 135°08'0 0.0
2017-Oct-23 20:31N 34°14' E 135°08'0 0.0
2017-Oct-23 20:00N 34°14' E 135°08'0 0.0
2017-Oct-23 19:28N 34°14' E 135°08'0 0.0
2017-Oct-23 19:01N 34°14' E 135°08'0 0.0
2017-Oct-23 18:31N 34°14' E 135°08'0 0.0
2017-Oct-23 18:01N 34°14' E 135°08'0 0.0
2017-Oct-23 17:31N 34°14' E 135°08'0 0.0
2017-Oct-23 17:01N 34°14' E 135°08'0 0.0
2017-Oct-23 16:31N 34°14' E 135°08'0 0.0
2017-Oct-23 15:58N 34°14' E 135°08'0 0.0
2017-Oct-23 15:25N 34°14' E 135°08'0 0.0
2017-Oct-23 15:00N 34°14' E 135°08'0 0.0
2017-Oct-23 14:31N 34°14' E 135°08'0 0.0
2017-Oct-23 14:01N 34°14' E 135°08'0 0.0
2017-Oct-23 13:28N 34°14' E 135°08'0 0.0
2017-Oct-23 12:57N 34°14' E 135°08'0 0.0
2017-Oct-23 12:28N 34°14' E 135°08'0 0.0
2017-Oct-23 11:57N 34°14' E 135°08'0 0.0
2017-Oct-23 11:31N 34°14' E 135°08'0 0.0
2017-Oct-23 11:00N 34°14' E 135°08'0 0.0
2017-Oct-23 10:30N 34°14' E 135°08'0 0.0
2017-Oct-23 10:00N 34°14' E 135°08'0 0.0
2017-Oct-23 09:31N 34°14' E 135°08'0 0.0
2017-Oct-23 09:01N 34°14' E 135°08'0 0.0
2017-Oct-23 08:28N 34°14' E 135°08'0 0.0
2017-Oct-23 08:01N 34°14' E 135°08'0 0.0
2017-Oct-23 07:28N 34°14' E 135°08'0 0.0
2017-Oct-23 07:01N 34°14' E 135°08'0 0.0
2017-Oct-23 06:30N 34°14' E 135°08'0 0.0
2017-Oct-23 05:58N 34°14' E 135°08'0 0.0
2017-Oct-23 05:25N 34°14' E 135°08'0 0.5
2017-Oct-23 05:00N 34°14' E 135°07'2 3.9
2017-Oct-23 04:30N 34°15' E 135°05'3 6.3
2017-Oct-23 04:00N 34°15' E 135°01'9 1.0
2017-Oct-22 18:55N 34°23' E 135°08'0 0.2
2017-Oct-22 17:21N 34°23' E 135°08'0 0.4
2017-Oct-22 16:43N 34°23' E 135°08'0 0.3
2017-Oct-22 16:20N 34°23' E 135°08'0 0.5
2017-Oct-22 15:58N 34°23' E 135°08'0 0.2
2017-Oct-22 15:08N 34°23' E 135°08'0 0.2
2017-Oct-22 14:59N 34°23' E 135°08'0 0.0
2017-Oct-22 05:21N 34°23' E 135°08'0 0.0
2017-Oct-22 04:52N 34°23' E 135°08'0 0.0
2017-Oct-22 02:09N 34°23' E 135°08'0 0.0
2017-Oct-22 00:21N 34°23' E 135°08'0 0.0
2017-Oct-21 23:57N 34°23' E 135°08'0 0.0
2017-Oct-21 23:28N 34°23' E 135°08'0 0.0
2017-Oct-21 22:51N 34°23' E 135°08'0 0.0
2017-Oct-21 22:27N 34°23' E 135°08'0 0.0
2017-Oct-21 21:57N 34°23' E 135°08'0 0.0
2017-Oct-21 21:22N 34°23' E 135°08'0 0.0
2017-Oct-21 20:57N 34°23' E 135°08'0 0.0
2017-Oct-21 19:45N 34°23' E 135°08'0 0.0
2017-Oct-21 19:15N 34°23' E 135°08'0 0.0
2017-Oct-21 17:52N 34°23' E 135°08'0 0.0
2017-Oct-21 17:21N 34°23' E 135°08'0 0.0
2017-Oct-21 16:57N 34°23' E 135°08'0 0.0
2017-Oct-21 16:21N 34°23' E 135°08'0 0.0
2017-Oct-21 15:58N 34°23' E 135°08'0 0.0
2017-Oct-21 15:09N 34°23' E 135°08'0 0.0
2017-Oct-21 14:46N 34°23' E 135°08'0 0.0
2017-Oct-21 14:28N 34°23' E 135°08'0 0.0
2017-Oct-21 07:22N 34°23' E 135°08'1 0.2
2017-Oct-21 03:13N 34°23' E 135°09'1 3.0
2017-Oct-21 02:54N 34°23' E 135°10'11 6.3
2017-Oct-21 01:10N 34°16' E 134°59'1 8.6
2017-Oct-21 01:00N 34°16' E 135°01'4 8.7
2017-Oct-21 00:30N 34°14' E 135°06'1 2.4
2017-Oct-21 00:00N 34°14' E 135°08'0 0.0
2017-Oct-20 23:28N 34°14' E 135°08'0 0.0
2017-Oct-20 23:00N 34°14' E 135°08'0 0.0
2017-Oct-20 22:27N 34°14' E 135°08'0 0.0
2017-Oct-20 21:57N 34°14' E 135°08'0 0.0
2017-Oct-20 21:28N 34°14' E 135°08'0 0.0
2017-Oct-20 20:51N 34°14' E 135°08'0 0.0
2017-Oct-20 20:28N 34°14' E 135°08'0 0.0
2017-Oct-20 19:58N 34°14' E 135°08'0 0.0
2017-Oct-20 19:27N 34°14' E 135°08'0 0.0
2017-Oct-20 18:58N 34°14' E 135°08'0 0.0
2017-Oct-20 18:27N 34°14' E 135°08'0 0.0
2017-Oct-20 18:00N 34°14' E 135°08'0 0.0
2017-Oct-20 17:31N 34°14' E 135°08'0 0.0
2017-Oct-20 17:00N 34°14' E 135°08'0 0.0
2017-Oct-20 16:30N 34°14' E 135°08'0 0.0
2017-Oct-20 16:01N 34°14' E 135°08'0 0.0
2017-Oct-20 15:28N 34°14' E 135°08'0 0.0
2017-Oct-20 15:00N 34°14' E 135°08'0 0.0
2017-Oct-20 13:58N 34°14' E 135°08'0 0.0
2017-Oct-20 13:30N 34°14' E 135°08'0 0.0
2017-Oct-20 12:57N 34°14' E 135°08'0 0.0
2017-Oct-20 12:31N 34°14' E 135°08'0 0.0
2017-Oct-20 12:01N 34°14' E 135°08'0 0.0
2017-Oct-20 11:28N 34°14' E 135°08'0 0.0
2017-Oct-20 11:00N 34°14' E 135°08'0 0.0
2017-Oct-20 10:30N 34°14' E 135°08'0 0.0
2017-Oct-20 09:55N 34°14' E 135°08'0 0.0
2017-Oct-20 09:30N 34°14' E 135°08'0 0.0
2017-Oct-20 09:01N 34°14' E 135°08'0 0.0
2017-Oct-20 08:31N 34°14' E 135°08'0 0.0
2017-Oct-20 08:01N 34°14' E 135°08'0 0.0
2017-Oct-20 07:30N 34°14' E 135°08'0 0.0
2017-Oct-20 07:00N 34°14' E 135°08'0 0.0
2017-Oct-20 06:28N 34°14' E 135°08'0 0.0
2017-Oct-20 05:58N 34°14' E 135°08'0 0.0
2017-Oct-20 05:31N 34°14' E 135°08'0 0.0
2017-Oct-20 04:57N 34°14' E 135°08'0 0.0
2017-Oct-20 04:27N 34°14' E 135°08'0 0.0
2017-Oct-20 04:00N 34°14' E 135°08'0 0.0
2017-Oct-20 03:31N 34°14' E 135°08'0 0.0
2017-Oct-20 02:58N 34°14' E 135°08'0 0.0
2017-Oct-20 02:27N 34°14' E 135°08'0 0.0
2017-Oct-20 02:01N 34°14' E 135°08'0 0.0
2017-Oct-20 01:30N 34°14' E 135°08'0 0.0
2017-Oct-20 01:01N 34°14' E 135°08'0 0.0
2017-Oct-20 00:31N 34°14' E 135°08'0 0.0
2017-Oct-19 23:57N 34°14' E 135°08'0 0.0
2017-Oct-19 23:29N 34°14' E 135°08'0 0.0
2017-Oct-19 23:00N 34°14' E 135°08'0 0.6
2017-Oct-19 22:30N 34°14' E 135°07'1 2.4
2017-Oct-19 22:00N 34°13' E 135°06'0 0.0
2017-Oct-19 21:30N 34°13' E 135°06'0 0.0
2017-Oct-19 21:01N 34°13' E 135°06'0 0.0
2017-Oct-19 20:30N 34°13' E 135°06'0 0.0
2017-Oct-19 20:00N 34°13' E 135°06'0 0.0
2017-Oct-19 19:31N 34°13' E 135°06'0 0.0
2017-Oct-19 19:00N 34°13' E 135°06'0 0.0
2017-Oct-19 18:31N 34°13' E 135°06'0 0.0
2017-Oct-19 18:01N 34°13' E 135°06'0 0.8
2017-Oct-19 17:30N 34°14' E 135°06'4 8.8
2017-Oct-19 17:00N 34°15' E 135°00'12 9.2
2017-Oct-19 15:42N 34°27' E 135°01'2 9.4
2017-Oct-19 15:29N 34°29' E 135°02'4 9.1
2017-Oct-19 15:00N 34°33' E 135°04'4 7.9
2017-Oct-19 14:30N 34°36' E 135°02'  

Dump ship's entire track history